Time;durP1;ratioP1;P1;durP2;ratioP2;P2;SDS_P1;SDS_P2;PMS_P1;PMS_P2;Temp;Humidity;BMP_temperature;BMP_pressure;BME280_temperature;BME280_humidity;BME280_pressure;Samples;Min_cycle;Max_cycle;Signal;HPM_P1;HPM_P2
2023/05/26 00:01:05;;;;;;;19.88;4.03;;;7.50;99.90;;;;;;5048188;28;20064;-81
2023/05/26 00:03:31;;;;;;;24.83;4.05;;;7.50;99.90;;;;;;5055141;28;20049;-82
2023/05/26 00:05:56;;;;;;;21.17;3.08;;;7.50;99.90;;;;;;5053562;28;20104;-81
2023/05/26 00:08:22;;;;;;;24.63;4.38;;;7.50;99.90;;;;;;5054077;28;20124;-82
2023/05/26 00:10:48;;;;;;;23.00;4.63;;;7.40;99.90;;;;;;5052129;28;20514;-81
2023/05/26 00:13:14;;;;;;;27.83;4.57;;;7.40;99.90;;;;;;5055212;28;20033;-81
2023/05/26 00:15:41;;;;;;;29.88;4.97;;;7.30;99.90;;;;;;5055435;28;20044;-81
2023/05/26 00:18:06;;;;;;;22.40;4.25;;;7.30;99.90;;;;;;5053239;28;20044;-81
2023/05/26 00:20:32;;;;;;;27.10;5.53;;;7.30;99.90;;;;;;5054407;28;20040;-81
2023/05/26 00:22:58;;;;;;;22.60;4.60;;;7.30;99.90;;;;;;5053007;28;20403;-81
2023/05/26 00:25:24;;;;;;;25.95;5.05;;;7.30;99.90;;;;;;5048036;28;20060;-80
2023/05/26 00:27:50;;;;;;;24.90;5.38;;;7.30;99.90;;;;;;5055041;28;20037;-81
2023/05/26 00:30:16;;;;;;;27.38;5.28;;;7.30;99.90;;;;;;5054177;28;20072;-82
2023/05/26 00:32:42;;;;;;;22.70;4.80;;;7.30;99.90;;;;;;5049697;28;20151;-81
2023/05/26 00:35:08;;;;;;;21.27;4.50;;;7.30;99.90;;;;;;5055770;28;20071;-81
2023/05/26 00:37:33;;;;;;;25.70;4.40;;;7.30;99.90;;;;;;5054589;28;20041;-80
2023/05/26 00:39:59;;;;;;;27.92;4.95;;;7.30;99.90;;;;;;5054603;28;20031;-81
2023/05/26 00:42:25;;;;;;;24.60;4.47;;;7.30;99.90;;;;;;5053485;28;20116;-80
2023/05/26 00:44:51;;;;;;;24.52;5.10;;;7.20;99.90;;;;;;5053534;28;20195;-81
2023/05/26 00:47:17;;;;;;;21.02;3.67;;;7.20;99.90;;;;;;5052099;28;20190;-81
2023/05/26 00:49:44;;;;;;;28.15;7.10;;;7.20;99.90;;;;;;5046368;28;20048;-81
2023/05/26 00:52:10;;;;;;;33.72;6.75;;;7.10;99.90;;;;;;5049168;28;20055;-81
2023/05/26 00:54:38;;;;;;;25.48;5.43;;;7.10;99.90;;;;;;5051840;28;20033;-81
2023/05/26 00:57:04;;;;;;;23.90;4.55;;;7.20;99.90;;;;;;5055822;28;20040;-80
2023/05/26 00:59:29;;;;;;;30.27;6.78;;;7.10;99.90;;;;;;5053882;28;20071;-81
2023/05/26 01:01:55;;;;;;;27.90;4.32;;;7.00;99.90;;;;;;5049879;28;20141;-81
2023/05/26 01:04:21;;;;;;;26.35;4.38;;;7.00;99.90;;;;;;5051588;28;20040;-81
2023/05/26 01:06:49;;;;;;;20.75;4.75;;;7.00;99.90;;;;;;5051598;28;20411;-82
2023/05/26 01:09:15;;;;;;;25.13;4.28;;;7.00;99.90;;;;;;5050799;28;20048;-82
2023/05/26 01:11:47;;;;;;;23.48;4.75;;;6.90;99.90;;;;;;5050760;28;20075;-81
2023/05/26 01:14:20;;;;;;;29.85;6.00;;;7.00;99.90;;;;;;5030193;28;20131;-81
2023/05/26 01:16:57;;;;;;;19.95;4.55;;;7.00;99.90;;;;;;5054668;28;20039;-82
2023/05/26 01:19:57;;;;;;;33.30;5.22;;;6.90;99.90;;;;;;5052836;28;20087;-81
2023/05/26 01:22:48;;;;;;;28.13;4.95;;;7.00;99.90;;;;;;5053036;28;20033;-81
2023/05/26 01:25:59;;;;;;;23.85;4.57;;;7.00;99.90;;;;;;5049346;28;20060;-81
2023/05/26 01:28:29;;;;;;;26.23;5.97;;;7.00;99.90;;;;;;5049836;28;20499;-81
2023/05/26 01:30:57;;;;;;;25.73;5.30;;;6.90;99.90;;;;;;5051156;28;20053;-81
2023/05/26 01:33:23;;;;;;;28.15;5.43;;;7.00;99.90;;;;;;5054698;28;20170;-81
2023/05/26 01:35:48;;;;;;;27.33;5.40;;;6.90;99.90;;;;;;5054144;28;20107;-82
2023/05/26 01:38:14;;;;;;;20.63;4.32;;;6.90;99.90;;;;;;5054385;28;20055;-81
2023/05/26 01:40:43;;;;;;;25.98;5.13;;;6.90;99.90;;;;;;5055562;28;20037;-81
2023/05/26 01:43:16;;;;;;;22.50;4.18;;;6.80;99.90;;;;;;5056895;28;20049;-81
2023/05/26 01:45:52;;;;;;;27.58;4.63;;;6.90;99.90;;;;;;5052617;28;20033;-81
2023/05/26 01:48:18;;;;;;;24.55;4.97;;;6.70;99.90;;;;;;5051660;28;20072;-82
2023/05/26 01:50:54;;;;;;;26.60;4.95;;;6.60;99.90;;;;;;5035289;28;20489;-81
2023/05/26 01:53:23;;;;;;;21.50;5.00;;;6.70;99.90;;;;;;5054687;28;20056;-81
2023/05/26 01:55:51;;;;;;;18.02;4.05;;;6.70;99.90;;;;;;5054516;28;20086;-81
2023/05/26 01:58:17;;;;;;;26.45;4.18;;;6.70;99.90;;;;;;5055395;28;20052;-81
2023/05/26 02:00:47;;;;;;;22.27;4.32;;;6.70;99.90;;;;;;5052080;28;20045;-80
2023/05/26 02:03:14;;;;;;;16.83;3.58;;;6.60;99.90;;;;;;5052976;28;20459;-81
2023/05/26 02:05:40;;;;;;;15.25;3.58;;;6.60;99.90;;;;;;5052994;28;20487;-81
2023/05/26 02:08:06;;;;;;;16.48;3.63;;;6.50;99.90;;;;;;5055663;28;20037;-80
2023/05/26 02:10:31;;;;;;;13.98;3.00;;;6.50;99.90;;;;;;5054470;28;20055;-81
2023/05/26 02:12:57;;;;;;;22.90;4.05;;;6.40;99.90;;;;;;5053399;28;20036;-81
2023/05/26 02:15:22;;;;;;;16.20;4.03;;;6.40;99.90;;;;;;5048175;28;20037;-80
2023/05/26 02:17:48;;;;;;;21.42;5.07;;;6.30;99.90;;;;;;5051738;28;20091;-80
2023/05/26 02:20:16;;;;;;;21.20;5.00;;;6.40;99.90;;;;;;5051684;28;20064;-81
2023/05/26 02:22:41;;;;;;;17.90;3.63;;;6.30;99.90;;;;;;5052264;28;20049;-81
2023/05/26 02:25:07;;;;;;;15.85;3.75;;;6.30;99.90;;;;;;5051132;28;20087;-81
2023/05/26 02:27:32;;;;;;;15.25;3.17;;;6.20;99.90;;;;;;5053154;28;20113;-81
2023/05/26 02:29:58;;;;;;;13.73;3.58;;;6.20;99.90;;;;;;5051576;28;20119;-79
2023/05/26 02:32:25;;;;;;;19.58;3.38;;;6.20;99.90;;;;;;5052608;28;20463;-80
2023/05/26 02:34:50;;;;;;;15.88;3.25;;;6.20;99.90;;;;;;5050493;28;20048;-81
2023/05/26 02:37:20;;;;;;;11.20;2.63;;;6.20;99.90;;;;;;5051362;28;20236;-79
2023/05/26 02:39:45;;;;;;;8.45;2.60;;;6.20;99.90;;;;;;5052349;28;20041;-81
2023/05/26 02:42:11;;;;;;;19.63;3.60;;;6.10;99.90;;;;;;5051013;28;20060;-80
2023/05/26 02:44:37;;;;;;;19.80;3.78;;;6.00;99.90;;;;;;5053844;28;20041;-81
2023/05/26 02:47:02;;;;;;;11.80;2.75;;;6.00;99.90;;;;;;5053950;28;20044;-81
2023/05/26 02:49:28;;;;;;;12.32;2.72;;;5.90;99.90;;;;;;5051099;28;20103;-81
2023/05/26 02:51:53;;;;;;;14.25;3.60;;;5.90;99.90;;;;;;5052164;28;20041;-79
2023/05/26 02:54:19;;;;;;;10.30;2.05;;;5.80;99.90;;;;;;5050158;28;20102;-82
2023/05/26 02:56:44;;;;;;;11.50;2.97;;;5.70;99.90;;;;;;5049014;28;20041;-81
2023/05/26 02:59:11;;;;;;;18.50;3.42;;;5.60;99.90;;;;;;5052987;28;20097;-81
2023/05/26 03:01:37;;;;;;;17.75;3.50;;;5.60;99.90;;;;;;5052435;28;20123;-80
2023/05/26 03:04:02;;;;;;;17.45;3.03;;;5.60;99.90;;;;;;5036115;28;20068;-81
2023/05/26 03:06:28;;;;;;;12.52;2.85;;;5.50;99.90;;;;;;5053726;28;20080;-80
2023/05/26 03:08:54;;;;;;;11.57;2.50;;;5.40;99.90;;;;;;5051741;28;20675;-79
2023/05/26 03:11:19;;;;;;;12.85;3.05;;;5.30;99.90;;;;;;5048703;28;20041;-81
2023/05/26 03:13:45;;;;;;;15.13;2.95;;;5.80;99.90;;;;;;5052492;28;20037;-81
2023/05/26 03:16:11;;;;;;;13.23;2.47;;;5.30;99.90;;;;;;5052408;28;20037;-80
2023/05/26 03:18:37;;;;;;;13.30;3.22;;;5.30;99.90;;;;;;5051682;28;20084;-82
2023/05/26 03:21:06;;;;;;;12.75;3.53;;;5.40;99.90;;;;;;5053379;28;20056;-81
2023/05/26 03:23:31;;;;;;;16.98;3.17;;;5.40;99.90;;;;;;5050412;28;20063;-82
2023/05/26 03:25:57;;;;;;;14.90;3.00;;;5.30;99.90;;;;;;5051022;28;20403;-79
2023/05/26 03:28:22;;;;;;;17.40;3.60;;;5.30;99.90;;;;;;5051033;28;20044;-80
2023/05/26 03:30:48;;;;;;;19.83;4.22;;;5.20;99.90;;;;;;5052529;28;20044;-81
2023/05/26 03:33:13;;;;;;;19.23;3.30;;;5.20;99.90;;;;;;5053976;28;20044;-81
2023/05/26 03:35:39;;;;;;;15.25;3.70;;;5.20;99.90;;;;;;5052522;28;20055;-80
2023/05/26 03:38:05;;;;;;;16.50;3.80;;;5.20;99.90;;;;;;5056817;28;20128;-80
2023/05/26 03:40:30;;;;;;;20.50;3.47;;;5.20;99.90;;;;;;5054270;28;20041;-81
2023/05/26 03:42:56;;;;;;;20.55;3.35;;;5.10;99.90;;;;;;5055302;28;20503;-81
2023/05/26 03:45:21;;;;;;;13.60;3.47;;;5.00;99.90;;;;;;5055758;28;20044;-81
2023/05/26 03:47:47;;;;;;;26.85;5.07;;;5.00;99.90;;;;;;5056843;28;20045;-80
2023/05/26 03:50:12;;;;;;;22.50;4.00;;;5.10;99.90;;;;;;5057066;28;20196;-80
2023/05/26 03:52:38;;;;;;;25.70;4.25;;;5.20;99.90;;;;;;5057054;28;20044;-81
2023/05/26 03:55:05;;;;;;;26.60;5.03;;;5.30;99.90;;;;;;5058131;28;20088;-80
2023/05/26 03:57:31;;;;;;;18.20;3.95;;;5.40;99.90;;;;;;5054227;28;20053;-81
2023/05/26 03:59:57;;;;;;;19.70;4.65;;;5.40;99.90;;;;;;5054471;28;20037;-81
2023/05/26 04:02:22;;;;;;;20.05;4.35;;;5.50;99.90;;;;;;5055862;28;20082;-81
2023/05/26 04:04:48;;;;;;;23.55;4.25;;;5.60;99.90;;;;;;5053753;28;20041;-79
2023/05/26 04:07:13;;;;;;;23.00;5.03;;;5.80;99.90;;;;;;5055174;28;20122;-81
2023/05/26 04:09:39;;;;;;;24.55;5.55;;;6.10;99.90;;;;;;5055472;28;20041;-81
2023/05/26 04:12:05;;;;;;;17.70;4.07;;;6.40;99.90;;;;;;5056155;28;20064;-80
2023/05/26 04:14:31;;;;;;;15.70;2.72;;;6.90;99.90;;;;;;5052489;28;20087;-81
2023/05/26 04:16:56;;;;;;;17.45;3.97;;;7.20;99.90;;;;;;5056535;28;20045;-80
2023/05/26 04:19:22;;;;;;;15.50;3.67;;;7.50;99.90;;;;;;5054483;28;20033;-80
2023/05/26 04:21:47;;;;;;;17.88;3.40;;;7.60;99.90;;;;;;5055323;28;20079;-81
2023/05/26 04:24:13;;;;;;;12.30;2.85;;;8.00;99.90;;;;;;5055401;28;20879;-81
2023/05/26 04:26:38;;;;;;;11.73;3.22;;;8.40;99.90;;;;;;5054352;28;20037;-81
2023/05/26 04:29:04;;;;;;;11.77;2.85;;;8.60;99.90;;;;;;5055453;28;20041;-81
2023/05/26 04:31:30;;;;;;;10.88;2.35;;;9.00;99.90;;;;;;5051540;28;20048;-81
2023/05/26 04:33:56;;;;;;;9.70;2.10;;;9.40;99.90;;;;;;5053917;28;20404;-81
2023/05/26 04:36:23;;;;;;;16.23;4.25;;;9.50;99.90;;;;;;5056144;28;20071;-81
2023/05/26 04:38:49;;;;;;;10.50;2.15;;;9.30;99.90;;;;;;5055250;28;20041;-81
2023/05/26 04:41:15;;;;;;;14.65;3.88;;;9.10;99.90;;;;;;5054780;28;20052;-81
2023/05/26 04:43:43;;;;;;;22.60;5.30;;;8.90;99.90;;;;;;5052329;28;20045;-82
2023/05/26 04:46:10;;;;;;;19.17;4.35;;;8.80;99.90;;;;;;5050766;28;20040;-81
2023/05/26 04:48:36;;;;;;;26.58;4.75;;;8.90;99.90;;;;;;5045983;28;20069;-80
2023/05/26 04:51:02;;;;;;;31.42;5.45;;;9.00;99.90;;;;;;5050194;28;20552;-81
2023/05/26 04:53:28;;;;;;;27.15;4.60;;;9.10;99.90;;;;;;5052423;28;20104;-81
2023/05/26 04:55:53;;;;;;;19.88;4.38;;;9.40;99.90;;;;;;5052221;28;20048;-80
2023/05/26 04:58:19;;;;;;;21.00;4.60;;;9.50;99.90;;;;;;5048359;28;20044;-81
2023/05/26 05:00:44;;;;;;;19.95;4.50;;;9.60;99.90;;;;;;5052887;28;20056;-80
2023/05/26 05:03:10;;;;;;;21.40;4.00;;;9.60;99.90;;;;;;5050226;28;20056;-81
2023/05/26 05:05:36;;;;;;;22.00;4.72;;;9.60;99.90;;;;;;5053934;28;20068;-80
2023/05/26 05:08:01;;;;;;;18.27;4.53;;;9.70;99.90;;;;;;5054515;28;20037;-79
2023/05/26 05:10:27;;;;;;;19.00;4.15;;;9.90;99.90;;;;;;5054257;28;20065;-80
2023/05/26 05:12:53;;;;;;;17.80;4.65;;;10.10;99.90;;;;;;5054593;28;20080;-80
2023/05/26 05:15:19;;;;;;;21.58;5.03;;;11.00;99.90;;;;;;5034664;28;20036;-80
2023/05/26 05:17:46;;;;;;;19.60;4.32;;;12.00;99.90;;;;;;5049799;28;20395;-80
2023/05/26 05:20:12;;;;;;;27.98;5.22;;;13.10;99.90;;;;;;5050941;28;20379;-81
2023/05/26 05:22:37;;;;;;;21.42;4.68;;;13.90;99.90;;;;;;5054366;28;20068;-80
2023/05/26 05:25:03;;;;;;;17.20;3.95;;;14.30;99.90;;;;;;5051416;28;20068;-81
2023/05/26 05:27:29;;;;;;;17.15;4.85;;;15.10;99.90;;;;;;5051921;28;20128;-81
2023/05/26 05:29:55;;;;;;;19.75;4.57;;;15.60;99.90;;;;;;5052263;28;20033;-81
2023/05/26 05:32:20;;;;;;;20.38;4.70;;;15.80;99.90;;;;;;5050314;28;20056;-81
2023/05/26 05:34:46;;;;;;;20.77;4.68;;;16.10;99.90;;;;;;5048430;28;20037;-83
2023/05/26 05:37:12;;;;;;;18.35;3.60;;;15.90;99.90;;;;;;5050263;28;20029;-79
2023/05/26 05:39:38;;;;;;;21.77;4.80;;;15.70;99.90;;;;;;5049606;28;20033;-81
2023/05/26 05:42:04;;;;;;;18.83;4.75;;;15.20;99.90;;;;;;5051349;28;20767;-81
2023/05/26 05:44:30;;;;;;;18.83;5.63;;;15.00;99.90;;;;;;5053266;28;20032;-81
2023/05/26 05:46:56;;;;;;;18.38;3.90;;;14.90;99.90;;;;;;5052881;28;20048;-81
2023/05/26 05:49:21;;;;;;;20.33;6.00;;;15.00;99.90;;;;;;5054568;28;20036;-80
2023/05/26 05:51:47;;;;;;;23.83;4.70;;;15.10;99.90;;;;;;5052521;28;20037;-81
2023/05/26 05:54:12;;;;;;;22.98;4.72;;;15.00;99.90;;;;;;5047166;28;20032;-80
2023/05/26 05:56:38;;;;;;;23.40;5.55;;;15.20;99.90;;;;;;5051726;28;20568;-81
2023/05/26 05:59:03;;;;;;;15.98;4.90;;;15.20;99.90;;;;;;5051777;28;20144;-79
2023/05/26 06:01:29;;;;;;;20.63;4.82;;;15.20;99.90;;;;;;5051077;28;20080;-80
2023/05/26 06:03:54;;;;;;;20.85;4.85;;;15.40;99.90;;;;;;5053377;28;20037;-81
2023/05/26 06:06:20;;;;;;;21.77;5.47;;;15.50;99.90;;;;;;5049840;28;20117;-81
2023/05/26 06:08:46;;;;;;;19.02;5.25;;;15.60;99.90;;;;;;5052161;28;20567;-76
2023/05/26 06:11:11;;;;;;;24.20;4.55;;;15.60;99.90;;;;;;5050192;28;20076;-81
2023/05/26 06:13:37;;;;;;;20.95;5.35;;;15.70;99.90;;;;;;5051386;28;20064;-80
2023/05/26 06:16:02;;;;;;;20.35;3.92;;;15.70;99.90;;;;;;5047930;28;20037;-79
2023/05/26 06:18:28;;;;;;;21.63;5.05;;;15.60;99.90;;;;;;5050006;28;20064;-81
2023/05/26 06:20:53;;;;;;;23.30;4.75;;;15.70;99.90;;;;;;5053264;28;20040;-81
2023/05/26 06:23:19;;;;;;;18.60;5.15;;;15.70;99.90;;;;;;5051290;28;20151;-79
2023/05/26 06:25:44;;;;;;;22.13;4.65;;;15.90;99.90;;;;;;5049972;28;20041;-80
2023/05/26 06:28:10;;;;;;;21.60;4.80;;;16.00;99.90;;;;;;5050447;28;20036;-81
2023/05/26 06:30:35;;;;;;;21.25;5.15;;;16.10;99.90;;;;;;5050877;28;20080;-81
2023/05/26 06:33:01;;;;;;;24.70;5.20;;;16.10;99.90;;;;;;5048327;28;20057;-81
2023/05/26 06:35:27;;;;;;;19.40;4.60;;;16.20;99.90;;;;;;5043320;28;20045;-81
2023/05/26 06:37:52;;;;;;;20.92;4.93;;;16.30;99.90;;;;;;5051195;28;20119;-81
2023/05/26 06:40:18;;;;;;;19.45;5.28;;;16.40;99.90;;;;;;5050938;28;20040;-78
2023/05/26 06:42:43;;;;;;;21.55;4.38;;;16.50;99.90;;;;;;5047213;28;20080;-81
2023/05/26 06:45:10;;;;;;;19.90;5.35;;;16.50;99.90;;;;;;5052098;28;20044;-81
2023/05/26 06:47:35;;;;;;;21.40;5.32;;;16.30;99.90;;;;;;5051564;28;20045;-80
2023/05/26 06:50:01;;;;;;;24.27;5.35;;;16.40;99.90;;;;;;5050515;28;20436;-81
2023/05/26 06:52:27;;;;;;;24.42;5.07;;;16.50;99.90;;;;;;5051693;28;20072;-80
2023/05/26 06:54:52;;;;;;;20.80;4.53;;;16.50;99.90;;;;;;5048511;28;20484;-81
2023/05/26 06:57:18;;;;;;;18.95;4.40;;;16.60;99.90;;;;;;5051702;28;20064;-80
2023/05/26 06:59:44;;;;;;;19.50;4.60;;;16.60;99.90;;;;;;5048825;28;20040;-81
2023/05/26 07:02:09;;;;;;;21.50;5.07;;;16.40;99.90;;;;;;5048593;28;20175;-81
2023/05/26 07:04:35;;;;;;;16.77;4.38;;;16.20;99.90;;;;;;5050056;28;20093;-78
2023/05/26 07:07:00;;;;;;;22.88;5.80;;;15.80;99.90;;;;;;5051214;28;20106;-81
2023/05/26 07:09:26;;;;;;;19.50;4.45;;;15.60;99.90;;;;;;5048501;28;20182;-79
2023/05/26 07:11:52;;;;;;;27.35;4.85;;;15.20;99.90;;;;;;5049274;28;20048;-81
2023/05/26 07:14:17;;;;;;;18.13;5.25;;;15.10;99.90;;;;;;5044365;28;20074;-82
2023/05/26 07:16:43;;;;;;;19.92;4.85;;;14.80;99.90;;;;;;5040988;28;20044;-81
2023/05/26 07:19:08;;;;;;;25.10;4.50;;;14.50;99.90;;;;;;5042531;28;20468;-82
2023/05/26 07:21:35;;;;;;;18.80;4.25;;;14.50;99.90;;;;;;5033071;28;20033;-81
2023/05/26 07:24:01;;;;;;;17.45;4.85;;;14.70;99.90;;;;;;5049989;28;20053;-81
2023/05/26 07:26:27;;;;;;;19.08;4.30;;;15.00;99.90;;;;;;5051039;28;20041;-80
2023/05/26 07:28:53;;;;;;;20.27;4.95;;;15.50;99.90;;;;;;5050730;28;20040;-81
2023/05/26 07:31:19;;;;;;;21.42;5.63;;;15.80;99.90;;;;;;5048667;28;20041;-82
2023/05/26 07:33:45;;;;;;;19.02;4.55;;;16.10;99.90;;;;;;5046092;28;20033;-81
2023/05/26 07:36:11;;;;;;;22.45;5.20;;;16.30;99.90;;;;;;5048947;28;20039;-83
2023/05/26 07:38:36;;;;;;;18.02;4.53;;;16.60;99.90;;;;;;5050715;28;20044;-81
2023/05/26 07:41:03;;;;;;;17.55;3.78;;;16.80;99.90;;;;;;5049398;28;20047;-81
2023/05/26 07:43:28;;;;;;;21.00;4.20;;;16.90;99.90;;;;;;5046127;28;20056;-79
2023/05/26 07:45:55;;;;;;;15.95;3.90;;;16.40;99.90;;;;;;5046535;28;20492;-82
2023/05/26 07:48:20;;;;;;;19.65;4.93;;;16.50;99.90;;;;;;5045989;28;20043;-80
2023/05/26 07:50:46;;;;;;;17.08;3.72;;;16.50;99.90;;;;;;5049945;28;20029;-80
2023/05/26 07:53:17;;;;;;;23.35;5.35;;;16.40;99.90;;;;;;5039273;28;20090;-81
2023/05/26 07:55:46;;;;;;;18.45;3.92;;;16.30;99.90;;;;;;5025944;28;20053;-81
2023/05/26 07:58:12;;;;;;;18.35;4.18;;;16.30;99.90;;;;;;5027730;28;20092;-82
2023/05/26 08:00:38;;;;;;;13.98;3.45;;;16.20;99.90;;;;;;5027222;28;20384;-80
2023/05/26 08:03:04;;;;;;;15.23;4.03;;;16.30;99.90;;;;;;5027034;28;20466;-83
2023/05/26 08:05:30;;;;;;;14.75;3.85;;;16.40;99.90;;;;;;5009023;28;20037;-79
2023/05/26 08:07:56;;;;;;;16.60;3.28;;;16.50;99.90;;;;;;5025003;28;20067;-79
2023/05/26 08:10:23;;;;;;;10.60;3.50;;;16.50;99.90;;;;;;5028915;28;20044;-79
2023/05/26 08:12:51;;;;;;;16.38;3.17;;;16.60;99.90;;;;;;5026632;28;20048;-81
2023/05/26 08:15:17;;;;;;;13.75;3.58;;;16.50;99.90;;;;;;5026520;28;20041;-80
2023/05/26 08:17:43;;;;;;;15.70;3.70;;;16.60;99.90;;;;;;5023716;28;20037;-79
2023/05/26 08:20:09;;;;;;;13.80;2.97;;;16.60;99.90;;;;;;5023797;28;20537;-81
2023/05/26 08:22:36;;;;;;;11.20;3.10;;;16.80;99.90;;;;;;5029296;28;20045;-80
2023/05/26 08:25:02;;;;;;;13.85;2.70;;;16.80;99.90;;;;;;5029393;28;20053;-79
2023/05/26 08:27:28;;;;;;;18.33;2.85;;;16.40;99.90;;;;;;5031466;28;20452;-80
2023/05/26 08:29:53;;;;;;;14.15;3.45;;;16.40;99.90;;;;;;5031331;28;20060;-80
2023/05/26 08:32:19;;;;;;;12.48;2.88;;;16.40;99.90;;;;;;5030056;28;20120;-80
2023/05/26 08:34:45;;;;;;;13.38;3.92;;;16.50;99.90;;;;;;5032555;28;20053;-79
2023/05/26 08:37:15;;;;;;;11.38;3.13;;;16.50;99.90;;;;;;5032839;28;20395;-80
2023/05/26 08:39:41;;;;;;;12.65;3.50;;;16.70;99.90;;;;;;5028499;28;20034;-79
2023/05/26 08:42:12;;;;;;;14.05;2.65;;;16.70;99.90;;;;;;5032054;28;20049;-80
2023/05/26 08:44:38;;;;;;;13.77;2.95;;;16.80;99.80;;;;;;5031646;28;20044;-80
2023/05/26 08:47:04;;;;;;;12.80;2.38;;;16.70;99.90;;;;;;5030514;28;20091;-79
2023/05/26 08:49:45;;;;;;;14.15;2.95;;;16.60;99.90;;;;;;5032802;28;20132;-81
2023/05/26 08:52:13;;;;;;;15.25;3.25;;;16.80;99.90;;;;;;5030853;28;20042;-80
2023/05/26 08:54:39;;;;;;;16.95;3.35;;;16.80;99.90;;;;;;5028817;28;20128;-80
2023/05/26 08:57:06;;;;;;;11.25;2.55;;;17.00;99.90;;;;;;5027148;28;20882;-79
2023/05/26 08:59:39;;;;;;;13.27;3.38;;;17.20;99.90;;;;;;5028447;28;20056;-80
2023/05/26 09:02:09;;;;;;;16.90;3.20;;;17.00;99.90;;;;;;5014813;28;20432;-81
2023/05/26 09:04:39;;;;;;;19.33;4.65;;;17.70;99.90;;;;;;5033750;28;20103;-81
2023/05/26 09:07:09;;;;;;;15.50;4.05;;;17.10;99.90;;;;;;5033429;28;20467;-80
2023/05/26 09:09:36;;;;;;;13.60;3.30;;;17.20;99.90;;;;;;5026816;28;20053;-81
2023/05/26 09:12:08;;;;;;;12.68;4.43;;;17.00;99.90;;;;;;5026942;28;20521;-79
2023/05/26 09:14:33;;;;;;;14.35;3.28;;;17.10;99.90;;;;;;5009831;28;20064;-79
2023/05/26 09:16:59;;;;;;;14.90;3.05;;;17.40;99.90;;;;;;5026563;28;20047;-81
2023/05/26 09:19:37;;;;;;;18.52;2.92;;;17.40;99.90;;;;;;5033079;28;20033;-80
2023/05/26 09:22:18;;;;;;;11.02;3.10;;;17.60;99.50;;;;;;5039720;28;20057;-80
2023/05/26 09:25:22;;;;;;;;;;;;;;;;;;;;;
2023/05/26 09:31:06;;;;;;;12.73;3.40;;;17.30;99.70;;;;;;5019694;28;20049;-79
2023/05/26 09:36:33;;;;;;;13.77;2.75;;;17.50;99.50;;;;;;5025108;28;20122;-78
2023/05/26 09:39:31;;;;;;;11.07;3.33;;;17.40;99.20;;;;;;5012431;28;20041;-81
2023/05/26 09:42:39;;;;;;;;;;;;;;;;;;;;;
2023/05/26 09:45:24;;;;;;;13.63;3.20;;;17.50;99.10;;;;;;5012701;28;20049;-81
2023/05/26 09:48:38;;;;;;;15.88;3.10;;;17.80;98.90;;;;;;5031697;28;20044;-80
2023/05/26 09:54:08;;;;;;;;;;;17.50;99.20;;;;;;5030138;28;20081;-79
2023/05/26 10:00:30;;;;;;;;;;;;;;;;;;;;;
2023/05/26 10:06:57;;;;;;;12.27;3.38;;;17.70;99.70;;;;;;4989206;28;20053;-80
2023/05/26 10:09:42;;;;;;;13.87;3.10;;;17.70;99.00;;;;;;4994246;28;20064;-80
2023/05/26 10:12:25;;;;;;;11.30;2.67;;;17.80;99.80;;;;;;5031549;28;20416;-80
2023/05/26 10:14:53;;;;;;;11.30;2.75;;;17.80;99.00;;;;;;5032194;28;20037;-80
2023/05/26 10:17:19;;;;;;;13.43;3.15;;;17.90;99.20;;;;;;5032192;28;20057;-80
2023/05/26 10:19:46;;;;;;;13.43;2.92;;;17.90;98.80;;;;;;5029460;28;20052;-80
2023/05/26 10:22:20;;;;;;;14.90;3.85;;;17.80;98.90;;;;;;5015441;28;20057;-78
2023/05/26 10:24:55;;;;;;;15.48;3.67;;;17.70;99.00;;;;;;5028856;28;20034;-78
2023/05/26 10:27:28;;;;;;;14.80;3.63;;;18.20;99.50;;;;;;5025797;28;20048;-80
2023/05/26 10:30:08;;;;;;;13.57;3.20;;;17.70;99.10;;;;;;5030751;28;20153;-79
2023/05/26 10:32:52;;;;;;;12.68;2.88;;;17.70;98.80;;;;;;5026353;28;20045;-76
2023/05/26 10:35:28;;;;;;;14.88;3.00;;;17.60;99.80;;;;;;5029097;28;20129;-80
2023/05/26 10:38:27;;;;;;;;;;;;;;;;;;;;;
2023/05/26 10:40:58;;;;;;;12.68;2.90;;;17.50;99.90;;;;;;5026465;28;20052;-81
2023/05/26 10:43:31;;;;;;;15.65;3.47;;;17.80;99.40;;;;;;5025757;28;20057;-77
2023/05/26 10:45:58;;;;;;;15.30;3.72;;;17.80;99.80;;;;;;5028582;28;20120;-80
2023/05/26 10:48:35;;;;;;;14.77;3.60;;;17.80;99.40;;;;;;5028159;28;20566;-79
2023/05/26 10:51:37;;;;;;;16.08;3.25;;;17.80;98.30;;;;;;5028967;28;20046;-81
2023/05/26 10:54:33;;;;;;;11.02;2.90;;;17.80;97.50;;;;;;5027712;28;20060;-81
2023/05/26 10:56:59;;;;;;;13.40;3.50;;;17.80;99.10;;;;;;5024591;28;20079;-78
2023/05/26 10:59:33;;;;;;;13.60;3.10;;;17.90;99.00;;;;;;5028358;28;20104;-80
2023/05/26 11:02:06;;;;;;;12.68;3.63;;;17.90;99.40;;;;;;5027132;28;20586;-77
2023/05/26 11:04:43;;;;;;;13.20;3.33;;;17.70;98.40;;;;;;5026911;28;20061;-80
2023/05/26 11:07:21;;;;;;;13.05;2.85;;;17.70;98.20;;;;;;5027940;28;20593;-78
2023/05/26 11:10:03;;;;;;;14.82;3.47;;;17.80;98.10;;;;;;5026173;28;20059;-82
2023/05/26 11:12:42;;;;;;;13.00;3.83;;;17.80;98.20;;;;;;5024124;28;20687;-81
2023/05/26 11:15:27;;;;;;;13.90;4.18;;;17.80;98.90;;;;;;5027714;28;20060;-79
2023/05/26 11:17:57;;;;;;;9.30;3.03;;;17.70;98.80;;;;;;5024652;28;20049;-79
2023/05/26 11:20:23;;;;;;;11.85;3.10;;;17.50;98.90;;;;;;5026022;28;20056;-80
2023/05/26 11:22:51;;;;;;;9.20;2.85;;;17.50;98.70;;;;;;5028071;28;20038;-79
2023/05/26 11:25:17;;;;;;;10.00;2.97;;;17.40;98.30;;;;;;5026817;28;20056;-80
2023/05/26 11:27:50;;;;;;;12.68;2.97;;;17.40;98.10;;;;;;5027907;28;20487;-78
2023/05/26 11:30:17;;;;;;;11.60;3.00;;;17.30;99.30;;;;;;5024132;28;20393;-81
2023/05/26 11:32:50;;;;;;;12.93;2.72;;;17.40;98.50;;;;;;5024295;28;20043;-79
2023/05/26 11:35:26;;;;;;;14.80;3.05;;;17.30;99.40;;;;;;5025826;28;20049;-80
2023/05/26 11:37:54;;;;;;;12.80;3.53;;;17.40;98.60;;;;;;5025219;28;20042;-80
2023/05/26 11:40:20;;;;;;;9.90;3.40;;;17.40;99.90;;;;;;5029578;28;20045;-80
2023/05/26 11:42:46;;;;;;;11.90;3.15;;;17.30;99.40;;;;;;5023020;28;20109;-80
2023/05/26 11:45:12;;;;;;;15.95;3.50;;;17.30;99.70;;;;;;5027338;28;20056;-80
2023/05/26 11:47:38;;;;;;;15.18;3.08;;;17.30;99.20;;;;;;5026325;28;20037;-79
2023/05/26 11:50:08;;;;;;;13.02;3.50;;;17.30;99.70;;;;;;5027524;28;20069;-81
2023/05/26 11:52:34;;;;;;;14.85;3.95;;;17.40;99.30;;;;;;5027445;28;20060;-78
2023/05/26 11:55:02;;;;;;;16.20;3.42;;;17.60;98.80;;;;;;5030954;28;20044;-81
2023/05/26 11:57:31;;;;;;;14.68;3.60;;;17.60;99.30;;;;;;5032619;28;20049;-79
2023/05/26 11:59:57;;;;;;;18.20;3.63;;;17.60;99.90;;;;;;5032266;28;20041;-80
2023/05/26 12:02:23;;;;;;;16.50;3.15;;;17.70;99.90;;;;;;5030449;28;20072;-78
2023/05/26 12:04:49;;;;;;;15.63;4.45;;;17.50;99.00;;;;;;5033110;28;20068;-80
2023/05/26 12:07:27;;;;;;;18.02;3.63;;;17.50;99.80;;;;;;5032958;28;20049;-79
2023/05/26 12:10:04;;;;;;;16.83;3.63;;;17.70;99.90;;;;;;5032244;28;20042;-80
2023/05/26 12:12:32;;;;;;;15.13;3.60;;;17.80;99.90;;;;;;5033575;28;20057;-81
2023/05/26 12:15:05;;;;;;;10.10;3.25;;;17.90;99.80;;;;;;5036318;28;20044;-80
2023/05/26 12:17:31;;;;;;;17.45;4.05;;;17.90;98.50;;;;;;5031873;28;20133;-80
2023/05/26 12:19:57;;;;;;;12.95;3.03;;;17.90;98.90;;;;;;5033680;28;20112;-79
2023/05/26 12:22:30;;;;;;;16.17;3.10;;;17.90;99.50;;;;;;5034648;28;20061;-80
2023/05/26 12:25:00;;;;;;;15.88;3.75;;;17.90;99.70;;;;;;5044071;28;20104;-81
2023/05/26 12:27:36;;;;;;;14.68;3.17;;;17.70;98.60;;;;;;5031549;28;20097;-80
2023/05/26 12:30:20;;;;;;;19.23;3.70;;;17.80;99.90;;;;;;5030315;28;20087;-81
2023/05/26 12:32:46;;;;;;;15.52;3.58;;;17.80;99.90;;;;;;5025683;28;20520;-81
2023/05/26 12:35:13;;;;;;;10.40;2.95;;;17.60;99.40;;;;;;5033650;28;20072;-81
2023/05/26 12:37:39;;;;;;;15.15;3.42;;;17.60;99.90;;;;;;5032428;28;20092;-81
2023/05/26 12:40:08;;;;;;;17.55;4.75;;;17.50;99.90;;;;;;5029467;28;20069;-79
2023/05/26 12:42:35;;;;;;;12.93;4.18;;;17.70;99.90;;;;;;5032966;28;21409;-80
2023/05/26 12:45:01;;;;;;;14.32;3.55;;;17.70;99.90;;;;;;5033486;28;20037;-78
2023/05/26 12:47:27;;;;;;;11.70;3.65;;;17.80;99.90;;;;;;5034785;28;20041;-78
2023/05/26 12:49:53;;;;;;;17.95;4.18;;;17.80;99.90;;;;;;5034494;28;20033;-79
2023/05/26 12:52:18;;;;;;;11.63;3.30;;;18.00;99.90;;;;;;5033901;28;20040;-80
2023/05/26 12:54:44;;;;;;;17.35;3.83;;;18.10;99.90;;;;;;5029864;28;20052;-80
2023/05/26 12:57:10;;;;;;;15.30;4.30;;;18.10;99.80;;;;;;5032982;28;20041;-78
2023/05/26 12:59:38;;;;;;;18.92;5.25;;;18.10;99.40;;;;;;5032363;28;20041;-79
2023/05/26 13:02:04;;;;;;;16.85;3.72;;;17.80;98.40;;;;;;5032905;28;20472;-81
2023/05/26 13:04:29;;;;;;;12.77;3.63;;;17.70;99.10;;;;;;5034871;28;20052;-80
2023/05/26 13:06:55;;;;;;;14.88;4.15;;;17.70;99.10;;;;;;5035320;28;20045;-80
2023/05/26 13:09:28;;;;;;;15.63;3.40;;;17.60;99.70;;;;;;5034593;28;20471;-79